Funabashi, Japan
Current Conditions -  °F | °C
As of 8:46 PM on Tuesday 27 Jan 2015 (Local Time) from RJTL Reporting Station
Rain Showers Rain Showers  
Wind Chill: 50°   Ceiling: 5000
Heat Index: 50°   Visibility: 6mi
Dew Point: 39°   Wind: 13mph
Humidity: 66%   Direction: 60°ENE
Pressure: 29.8"   Gusts: NA
Location:  35.7°N, 139.99°E
Report Text: RJTL 271146Z 06011KT 010V100 9999 -SHRA SCT020 BKN050 10/04 Q1009 RMK 3CU020 7SC050 A2980
Loading
Personal Weather Stations






























Interactive Weather Map New forecast layout! Learn more

10-Day Weather Forecast

Advertisements
Track Severe Weather on mobile